sensor_id;sensor_type;location;lat;lon;timestamp;temperature;humidity
3380;DHT22;1703;51.964;7.642;2022-09-09T00:01:44;18.50;99.90
3380;DHT22;1703;51.964;7.642;2022-09-09T00:04:20;18.50;99.90
3380;DHT22;1703;51.964;7.642;2022-09-09T00:06:56;18.40;99.90
3380;DHT22;1703;51.964;7.642;2022-09-09T00:09:28;18.50;99.90
3380;DHT22;1703;51.964;7.642;2022-09-09T00:12:00;18.50;99.90
3380;DHT22;1703;51.964;7.642;2022-09-09T00:14:37;18.40;99.90
3380;DHT22;1703;51.964;7.642;2022-09-09T00:17:09;18.50;99.90
3380;DHT22;1703;51.964;7.642;2022-09-09T00:19:43;18.40;99.90
3380;DHT22;1703;51.964;7.642;2022-09-09T00:22:18;18.50;99.90
3380;DHT22;1703;51.964;7.642;2022-09-09T00:24:47;18.50;99.90
3380;DHT22;1703;51.964;7.642;2022-09-09T00:27:24;18.50;99.90
3380;DHT22;1703;51.964;7.642;2022-09-09T00:29:58;18.40;99.90
3380;DHT22;1703;51.964;7.642;2022-09-09T00:32:28;18.50;99.90
3380;DHT22;1703;51.964;7.642;2022-09-09T00:34:59;18.50;99.90
3380;DHT22;1703;51.964;7.642;2022-09-09T00:37:29;18.50;99.90
3380;DHT22;1703;51.964;7.642;2022-09-09T00:40:02;18.40;99.90
3380;DHT22;1703;51.964;7.642;2022-09-09T00:42:38;18.40;99.90
3380;DHT22;1703;51.964;7.642;2022-09-09T00:45:19;18.50;99.90
3380;DHT22;1703;51.964;7.642;2022-09-09T00:47:54;18.50;99.90
3380;DHT22;1703;51.964;7.642;2022-09-09T00:50:35;18.50;99.90
3380;DHT22;1703;51.964;7.642;2022-09-09T00:53:19;18.50;99.90
3380;DHT22;1703;51.964;7.642;2022-09-09T00:55:56;18.40;99.90
3380;DHT22;1703;51.964;7.642;2022-09-09T00:58:25;18.40;99.90
3380;DHT22;1703;51.964;7.642;2022-09-09T01:00:57;18.30;99.90
3380;DHT22;1703;51.964;7.642;2022-09-09T01:03:34;18.30;99.90
3380;DHT22;1703;51.964;7.642;2022-09-09T01:06:12;18.30;99.90
3380;DHT22;1703;51.964;7.642;2022-09-09T01:09:05;18.30;99.90
3380;DHT22;1703;51.964;7.642;2022-09-09T01:11:45;18.20;99.90
3380;DHT22;1703;51.964;7.642;2022-09-09T01:14:24;18.20;99.90
3380;DHT22;1703;51.964;7.642;2022-09-09T01:16:58;18.20;99.90
3380;DHT22;1703;51.964;7.642;2022-09-09T01:19:37;18.20;99.90
3380;DHT22;1703;51.964;7.642;2022-09-09T01:22:11;18.10;99.90
3380;DHT22;1703;51.964;7.642;2022-09-09T01:24:48;18.10;99.90
3380;DHT22;1703;51.964;7.642;2022-09-09T01:27:46;18.10;99.90
3380;DHT22;1703;51.964;7.642;2022-09-09T01:30:17;18.00;99.90
3380;DHT22;1703;51.964;7.642;2022-09-09T01:32:46;18.00;99.90
3380;DHT22;1703;51.964;7.642;2022-09-09T01:35:20;18.00;99.90
3380;DHT22;1703;51.964;7.642;2022-09-09T01:37:52;17.90;99.90
3380;DHT22;1703;51.964;7.642;2022-09-09T01:40:19;17.90;99.90
3380;DHT22;1703;51.964;7.642;2022-09-09T01:42:49;17.90;99.90
3380;DHT22;1703;51.964;7.642;2022-09-09T01:45:16;17.80;99.90
3380;DHT22;1703;51.964;7.642;2022-09-09T01:47:44;17.80;99.90
3380;DHT22;1703;51.964;7.642;2022-09-09T01:50:25;17.80;99.90
3380;DHT22;1703;51.964;7.642;2022-09-09T01:52:56;17.80;99.90
3380;DHT22;1703;51.964;7.642;2022-09-09T01:55:29;17.90;99.90
3380;DHT22;1703;51.964;7.642;2022-09-09T01:58:10;17.80;99.90
3380;DHT22;1703;51.964;7.642;2022-09-09T02:00:45;17.80;99.90
3380;DHT22;1703;51.964;7.642;2022-09-09T02:03:20;17.70;99.90
3380;DHT22;1703;51.964;7.642;2022-09-09T02:06:01;17.70;99.90
3380;DHT22;1703;51.964;7.642;2022-09-09T02:08:36;17.70;99.90
3380;DHT22;1703;51.964;7.642;2022-09-09T02:11:13;17.70;99.90
3380;DHT22;1703;51.964;7.642;2022-09-09T02:13:56;17.70;99.90
3380;DHT22;1703;51.964;7.642;2022-09-09T02:16:26;17.60;99.90
3380;DHT22;1703;51.964;7.642;2022-09-09T02:18:59;17.60;99.90
3380;DHT22;1703;51.964;7.642;2022-09-09T02:21:38;17.60;99.90
3380;DHT22;1703;51.964;7.642;2022-09-09T02:24:07;17.60;99.90
3380;DHT22;1703;51.964;7.642;2022-09-09T02:26:39;17.60;99.90
3380;DHT22;1703;51.964;7.642;2022-09-09T02:29:13;17.60;99.90
3380;DHT22;1703;51.964;7.642;2022-09-09T02:31:42;17.50;99.90
3380;DHT22;1703;51.964;7.642;2022-09-09T02:34:18;17.50;99.90
3380;DHT22;1703;51.964;7.642;2022-09-09T02:36:47;17.50;99.90
3380;DHT22;1703;51.964;7.642;2022-09-09T02:39:15;17.50;99.90
3380;DHT22;1703;51.964;7.642;2022-09-09T02:41:42;17.50;99.90
3380;DHT22;1703;51.964;7.642;2022-09-09T02:44:12;17.50;99.90
3380;DHT22;1703;51.964;7.642;2022-09-09T02:46:56;17.50;99.90
3380;DHT22;1703;51.964;7.642;2022-09-09T02:49:40;17.50;99.90
3380;DHT22;1703;51.964;7.642;2022-09-09T02:52:14;17.50;99.90
3380;DHT22;1703;51.964;7.642;2022-09-09T02:54:42;17.40;99.90
3380;DHT22;1703;51.964;7.642;2022-09-09T02:57:13;17.50;99.90
3380;DHT22;1703;51.964;7.642;2022-09-09T02:59:47;17.50;99.90
3380;DHT22;1703;51.964;7.642;2022-09-09T03:02:14;17.50;99.90
3380;DHT22;1703;51.964;7.642;2022-09-09T03:04:46;17.50;99.90
3380;DHT22;1703;51.964;7.642;2022-09-09T03:07:16;17.50;99.90
3380;DHT22;1703;51.964;7.642;2022-09-09T03:09:44;17.50;99.90
3380;DHT22;1703;51.964;7.642;2022-09-09T03:12:11;17.50;99.90
3380;DHT22;1703;51.964;7.642;2022-09-09T03:14:39;17.50;99.90
3380;DHT22;1703;51.964;7.642;2022-09-09T03:17:08;17.50;99.90
3380;DHT22;1703;51.964;7.642;2022-09-09T03:19:40;17.60;99.90
3380;DHT22;1703;51.964;7.642;2022-09-09T03:22:10;17.50;99.90
3380;DHT22;1703;51.964;7.642;2022-09-09T03:24:39;17.50;99.90
3380;DHT22;1703;51.964;7.642;2022-09-09T03:27:07;17.50;99.90
3380;DHT22;1703;51.964;7.642;2022-09-09T03:29:36;17.50;99.90
3380;DHT22;1703;51.964;7.642;2022-09-09T03:32:08;17.50;99.90
3380;DHT22;1703;51.964;7.642;2022-09-09T03:34:35;17.50;99.90
3380;DHT22;1703;51.964;7.642;2022-09-09T03:37:06;17.50;99.90
3380;DHT22;1703;51.964;7.642;2022-09-09T03:39:34;17.50;99.90
3380;DHT22;1703;51.964;7.642;2022-09-09T03:42:01;17.50;99.90
3380;DHT22;1703;51.964;7.642;2022-09-09T03:44:30;17.50;99.90
3380;DHT22;1703;51.964;7.642;2022-09-09T03:46:57;17.50;99.90
3380;DHT22;1703;51.964;7.642;2022-09-09T03:49:27;17.50;99.90
3380;DHT22;1703;51.964;7.642;2022-09-09T03:51:55;17.50;99.90
3380;DHT22;1703;51.964;7.642;2022-09-09T03:54:24;17.60;99.90
3380;DHT22;1703;51.964;7.642;2022-09-09T03:56:50;17.60;99.90
3380;DHT22;1703;51.964;7.642;2022-09-09T03:59:18;17.60;99.90
3380;DHT22;1703;51.964;7.642;2022-09-09T04:01:46;17.70;99.90
3380;DHT22;1703;51.964;7.642;2022-09-09T04:04:12;17.60;99.90
3380;DHT22;1703;51.964;7.642;2022-09-09T04:06:41;17.60;99.90
3380;DHT22;1703;51.964;7.642;2022-09-09T04:09:08;17.60;99.90
3380;DHT22;1703;51.964;7.642;2022-09-09T04:11:36;17.60;99.90
3380;DHT22;1703;51.964;7.642;2022-09-09T04:14:03;17.60;99.90
3380;DHT22;1703;51.964;7.642;2022-09-09T04:16:31;17.60;99.90
3380;DHT22;1703;51.964;7.642;2022-09-09T04:18:58;17.60;99.90
3380;DHT22;1703;51.964;7.642;2022-09-09T04:21:26;17.60;99.90
3380;DHT22;1703;51.964;7.642;2022-09-09T04:23:55;17.70;99.90
3380;DHT22;1703;51.964;7.642;2022-09-09T04:26:23;17.60;99.90
3380;DHT22;1703;51.964;7.642;2022-09-09T04:28:50;17.70;99.90
3380;DHT22;1703;51.964;7.642;2022-09-09T04:31:20;17.70;99.90
3380;DHT22;1703;51.964;7.642;2022-09-09T04:33:50;17.70;99.90
3380;DHT22;1703;51.964;7.642;2022-09-09T04:36:18;17.70;99.90
3380;DHT22;1703;51.964;7.642;2022-09-09T04:38:47;17.70;99.90
3380;DHT22;1703;51.964;7.642;2022-09-09T04:41:16;17.70;99.90
3380;DHT22;1703;51.964;7.642;2022-09-09T04:43:45;17.60;99.90
3380;DHT22;1703;51.964;7.642;2022-09-09T04:46:15;17.60;99.90
3380;DHT22;1703;51.964;7.642;2022-09-09T04:48:43;17.60;99.90
3380;DHT22;1703;51.964;7.642;2022-09-09T04:51:13;17.60;99.90
3380;DHT22;1703;51.964;7.642;2022-09-09T04:53:41;17.60;99.90
3380;DHT22;1703;51.964;7.642;2022-09-09T04:56:11;17.50;99.90
3380;DHT22;1703;51.964;7.642;2022-09-09T04:58:44;17.50;99.90
3380;DHT22;1703;51.964;7.642;2022-09-09T05:01:13;17.50;99.90
3380;DHT22;1703;51.964;7.642;2022-09-09T05:03:42;17.60;99.90
3380;DHT22;1703;51.964;7.642;2022-09-09T05:06:14;17.60;99.90
3380;DHT22;1703;51.964;7.642;2022-09-09T05:08:42;17.60;99.90
3380;DHT22;1703;51.964;7.642;2022-09-09T05:11:14;17.60;99.90
3380;DHT22;1703;51.964;7.642;2022-09-09T05:13:44;17.70;99.90
3380;DHT22;1703;51.964;7.642;2022-09-09T05:16:11;17.60;99.90
3380;DHT22;1703;51.964;7.642;2022-09-09T05:18:39;17.70;99.90
3380;DHT22;1703;51.964;7.642;2022-09-09T05:21:07;17.60;99.90
3380;DHT22;1703;51.964;7.642;2022-09-09T05:23:34;17.70;99.90
3380;DHT22;1703;51.964;7.642;2022-09-09T05:26:01;17.70;99.90
3380;DHT22;1703;51.964;7.642;2022-09-09T05:28:29;17.70;99.90
3380;DHT22;1703;51.964;7.642;2022-09-09T05:30:58;17.70;99.90
3380;DHT22;1703;51.964;7.642;2022-09-09T05:33:27;17.80;99.90
3380;DHT22;1703;51.964;7.642;2022-09-09T05:35:58;17.80;99.90
3380;DHT22;1703;51.964;7.642;2022-09-09T05:38:26;17.80;99.90
3380;DHT22;1703;51.964;7.642;2022-09-09T05:40:52;17.80;99.90
3380;DHT22;1703;51.964;7.642;2022-09-09T05:43:19;17.80;99.90
3380;DHT22;1703;51.964;7.642;2022-09-09T05:45:46;17.90;99.90
3380;DHT22;1703;51.964;7.642;2022-09-09T05:48:15;17.90;99.90
3380;DHT22;1703;51.964;7.642;2022-09-09T05:50:53;18.00;99.90
3380;DHT22;1703;51.964;7.642;2022-09-09T05:53:20;18.00;99.90
3380;DHT22;1703;51.964;7.642;2022-09-09T05:55:47;18.00;99.90
3380;DHT22;1703;51.964;7.642;2022-09-09T05:58:14;18.00;99.90
3380;DHT22;1703;51.964;7.642;2022-09-09T06:00:43;17.90;99.90
3380;DHT22;1703;51.964;7.642;2022-09-09T06:03:11;18.00;99.90
3380;DHT22;1703;51.964;7.642;2022-09-09T06:05:40;18.00;99.90
3380;DHT22;1703;51.964;7.642;2022-09-09T06:08:07;18.00;99.90
3380;DHT22;1703;51.964;7.642;2022-09-09T06:10:34;18.00;99.90
3380;DHT22;1703;51.964;7.642;2022-09-09T06:13:02;18.00;99.90
3380;DHT22;1703;51.964;7.642;2022-09-09T06:15:29;18.00;99.90
3380;DHT22;1703;51.964;7.642;2022-09-09T06:17:57;18.10;99.90
3380;DHT22;1703;51.964;7.642;2022-09-09T06:20:24;18.20;99.90
3380;DHT22;1703;51.964;7.642;2022-09-09T06:22:52;18.10;99.90
3380;DHT22;1703;51.964;7.642;2022-09-09T06:25:19;18.20;99.90
3380;DHT22;1703;51.964;7.642;2022-09-09T06:27:48;18.20;99.90
3380;DHT22;1703;51.964;7.642;2022-09-09T06:30:16;18.30;99.90
3380;DHT22;1703;51.964;7.642;2022-09-09T06:32:44;18.20;99.90
3380;DHT22;1703;51.964;7.642;2022-09-09T06:35:11;18.20;99.90
3380;DHT22;1703;51.964;7.642;2022-09-09T06:37:39;18.20;99.90
3380;DHT22;1703;51.964;7.642;2022-09-09T06:40:09;18.20;99.90
3380;DHT22;1703;51.964;7.642;2022-09-09T06:42:36;18.30;99.90
3380;DHT22;1703;51.964;7.642;2022-09-09T06:45:22;18.40;99.90
3380;DHT22;1703;51.964;7.642;2022-09-09T06:47:55;18.40;99.90
3380;DHT22;1703;51.964;7.642;2022-09-09T06:50:22;18.50;99.90
3380;DHT22;1703;51.964;7.642;2022-09-09T06:52:49;18.50;99.90
3380;DHT22;1703;51.964;7.642;2022-09-09T06:55:19;18.50;99.90
3380;DHT22;1703;51.964;7.642;2022-09-09T06:57:46;18.60;99.90
3380;DHT22;1703;51.964;7.642;2022-09-09T07:00:18;18.60;99.90
3380;DHT22;1703;51.964;7.642;2022-09-09T07:02:45;18.60;99.90
3380;DHT22;1703;51.964;7.642;2022-09-09T07:05:13;18.60;99.90
3380;DHT22;1703;51.964;7.642;2022-09-09T07:07:42;18.60;99.90
3380;DHT22;1703;51.964;7.642;2022-09-09T07:10:11;18.60;99.90
3380;DHT22;1703;51.964;7.642;2022-09-09T07:12:40;18.70;99.90
3380;DHT22;1703;51.964;7.642;2022-09-09T07:15:10;18.70;99.90
3380;DHT22;1703;51.964;7.642;2022-09-09T07:17:40;18.80;99.90
3380;DHT22;1703;51.964;7.642;2022-09-09T07:20:07;18.80;99.90
3380;DHT22;1703;51.964;7.642;2022-09-09T07:22:34;18.80;99.90
3380;DHT22;1703;51.964;7.642;2022-09-09T07:25:01;18.80;99.90
3380;DHT22;1703;51.964;7.642;2022-09-09T07:27:28;18.80;99.90
3380;DHT22;1703;51.964;7.642;2022-09-09T07:29:57;18.90;99.90
3380;DHT22;1703;51.964;7.642;2022-09-09T07:32:24;18.90;99.90
3380;DHT22;1703;51.964;7.642;2022-09-09T07:34:52;18.80;99.90
3380;DHT22;1703;51.964;7.642;2022-09-09T07:37:20;18.80;99.90
3380;DHT22;1703;51.964;7.642;2022-09-09T07:39:48;18.80;99.90
3380;DHT22;1703;51.964;7.642;2022-09-09T07:42:17;18.90;99.90
3380;DHT22;1703;51.964;7.642;2022-09-09T07:44:44;18.90;99.90
3380;DHT22;1703;51.964;7.642;2022-09-09T07:47:15;18.90;99.90
3380;DHT22;1703;51.964;7.642;2022-09-09T07:49:45;18.90;99.90
3380;DHT22;1703;51.964;7.642;2022-09-09T07:52:18;19.00;99.90
3380;DHT22;1703;51.964;7.642;2022-09-09T07:54:46;18.90;99.90
3380;DHT22;1703;51.964;7.642;2022-09-09T07:57:14;18.90;99.90
3380;DHT22;1703;51.964;7.642;2022-09-09T07:59:41;18.90;99.90
3380;DHT22;1703;51.964;7.642;2022-09-09T08:02:09;19.00;99.90
3380;DHT22;1703;51.964;7.642;2022-09-09T08:04:38;19.00;99.90
3380;DHT22;1703;51.964;7.642;2022-09-09T08:07:05;19.00;99.90
3380;DHT22;1703;51.964;7.642;2022-09-09T08:09:38;18.90;99.90
3380;DHT22;1703;51.964;7.642;2022-09-09T08:12:12;19.00;99.90
3380;DHT22;1703;51.964;7.642;2022-09-09T08:14:40;19.00;99.90
3380;DHT22;1703;51.964;7.642;2022-09-09T08:17:06;19.10;99.90
3380;DHT22;1703;51.964;7.642;2022-09-09T08:19:33;19.10;99.90
3380;DHT22;1703;51.964;7.642;2022-09-09T08:22:03;19.20;99.90
3380;DHT22;1703;51.964;7.642;2022-09-09T08:24:32;19.40;99.90
3380;DHT22;1703;51.964;7.642;2022-09-09T08:26:59;19.40;99.90
3380;DHT22;1703;51.964;7.642;2022-09-09T08:29:27;19.50;99.90
3380;DHT22;1703;51.964;7.642;2022-09-09T08:31:57;19.50;99.90
3380;DHT22;1703;51.964;7.642;2022-09-09T08:34:25;19.50;99.90
3380;DHT22;1703;51.964;7.642;2022-09-09T08:36:53;19.40;99.90
3380;DHT22;1703;51.964;7.642;2022-09-09T08:39:26;19.40;99.90
3380;DHT22;1703;51.964;7.642;2022-09-09T08:42:17;19.40;99.90
3380;DHT22;1703;51.964;7.642;2022-09-09T08:45:02;19.40;99.90
3380;DHT22;1703;51.964;7.642;2022-09-09T08:47:37;19.30;99.90
3380;DHT22;1703;51.964;7.642;2022-09-09T08:50:19;19.50;99.90
3380;DHT22;1703;51.964;7.642;2022-09-09T08:52:56;19.60;99.90
3380;DHT22;1703;51.964;7.642;2022-09-09T08:55:32;19.70;99.90
3380;DHT22;1703;51.964;7.642;2022-09-09T08:58:10;19.70;99.90
3380;DHT22;1703;51.964;7.642;2022-09-09T09:00:59;19.70;99.90
3380;DHT22;1703;51.964;7.642;2022-09-09T09:03:35;19.80;99.90
3380;DHT22;1703;51.964;7.642;2022-09-09T09:06:13;19.80;99.90
3380;DHT22;1703;51.964;7.642;2022-09-09T09:08:51;19.80;99.90
3380;DHT22;1703;51.964;7.642;2022-09-09T09:11:23;19.90;99.90
3380;DHT22;1703;51.964;7.642;2022-09-09T09:13:56;20.10;99.90
3380;DHT22;1703;51.964;7.642;2022-09-09T09:16:30;20.30;99.90
3380;DHT22;1703;51.964;7.642;2022-09-09T09:19:01;20.30;99.90
3380;DHT22;1703;51.964;7.642;2022-09-09T09:21:39;20.20;99.90
3380;DHT22;1703;51.964;7.642;2022-09-09T09:24:18;20.10;99.90
3380;DHT22;1703;51.964;7.642;2022-09-09T09:26:47;20.10;99.90
3380;DHT22;1703;51.964;7.642;2022-09-09T09:29:18;20.20;99.90
3380;DHT22;1703;51.964;7.642;2022-09-09T09:31:51;20.20;99.90
3380;DHT22;1703;51.964;7.642;2022-09-09T09:34:21;20.20;99.90
3380;DHT22;1703;51.964;7.642;2022-09-09T09:36:53;20.20;99.90
3380;DHT22;1703;51.964;7.642;2022-09-09T09:39:25;20.10;99.90
3380;DHT22;1703;51.964;7.642;2022-09-09T09:42:08;20.10;99.90
3380;DHT22;1703;51.964;7.642;2022-09-09T09:44:36;20.10;99.90
3380;DHT22;1703;51.964;7.642;2022-09-09T09:47:13;20.10;99.90
3380;DHT22;1703;51.964;7.642;2022-09-09T09:49:52;20.20;99.90
3380;DHT22;1703;51.964;7.642;2022-09-09T09:52:22;20.40;99.90
3380;DHT22;1703;51.964;7.642;2022-09-09T09:54:50;20.50;99.90
3380;DHT22;1703;51.964;7.642;2022-09-09T09:57:25;20.60;99.90
3380;DHT22;1703;51.964;7.642;2022-09-09T10:00:04;20.70;99.90
3380;DHT22;1703;51.964;7.642;2022-09-09T10:02:41;20.80;99.90
3380;DHT22;1703;51.964;7.642;2022-09-09T10:05:16;20.80;99.90
3380;DHT22;1703;51.964;7.642;2022-09-09T10:08:00;20.60;99.90
3380;DHT22;1703;51.964;7.642;2022-09-09T10:10:42;20.50;99.90
3380;DHT22;1703;51.964;7.642;2022-09-09T10:13:18;20.50;99.90
3380;DHT22;1703;51.964;7.642;2022-09-09T10:15:54;20.60;99.90
3380;DHT22;1703;51.964;7.642;2022-09-09T10:18:43;20.60;99.90
3380;DHT22;1703;51.964;7.642;2022-09-09T10:21:20;20.80;99.90
3380;DHT22;1703;51.964;7.642;2022-09-09T10:24:09;21.00;99.90
3380;DHT22;1703;51.964;7.642;2022-09-09T10:26:44;21.10;99.90
3380;DHT22;1703;51.964;7.642;2022-09-09T10:29:28;21.20;99.90
3380;DHT22;1703;51.964;7.642;2022-09-09T10:32:05;21.40;99.90
3380;DHT22;1703;51.964;7.642;2022-09-09T10:34:51;21.60;99.90
3380;DHT22;1703;51.964;7.642;2022-09-09T10:37:32;21.60;99.90
3380;DHT22;1703;51.964;7.642;2022-09-09T10:40:11;21.50;99.90
3380;DHT22;1703;51.964;7.642;2022-09-09T10:42:42;21.80;99.90
3380;DHT22;1703;51.964;7.642;2022-09-09T10:45:17;21.80;99.90
3380;DHT22;1703;51.964;7.642;2022-09-09T10:48:02;21.70;99.90
3380;DHT22;1703;51.964;7.642;2022-09-09T10:50:55;21.80;99.90
3380;DHT22;1703;51.964;7.642;2022-09-09T10:53:35;21.80;99.90
3380;DHT22;1703;51.964;7.642;2022-09-09T10:56:06;21.70;99.90
3380;DHT22;1703;51.964;7.642;2022-09-09T10:58:40;21.80;99.90
3380;DHT22;1703;51.964;7.642;2022-09-09T11:01:15;22.00;99.90
3380;DHT22;1703;51.964;7.642;2022-09-09T11:03:47;22.10;99.90
3380;DHT22;1703;51.964;7.642;2022-09-09T11:06:18;22.10;99.90
3380;DHT22;1703;51.964;7.642;2022-09-09T11:08:46;22.10;99.90
3380;DHT22;1703;51.964;7.642;2022-09-09T11:11:19;22.10;99.90
3380;DHT22;1703;51.964;7.642;2022-09-09T11:13:53;22.10;99.90
3380;DHT22;1703;51.964;7.642;2022-09-09T11:16:28;22.10;99.90
3380;DHT22;1703;51.964;7.642;2022-09-09T11:19:00;22.20;99.90
3380;DHT22;1703;51.964;7.642;2022-09-09T11:21:30;22.10;99.90
3380;DHT22;1703;51.964;7.642;2022-09-09T11:24:03;22.10;99.90
3380;DHT22;1703;51.964;7.642;2022-09-09T11:26:35;22.00;99.90
3380;DHT22;1703;51.964;7.642;2022-09-09T11:29:35;21.90;99.90
3380;DHT22;1703;51.964;7.642;2022-09-09T11:32:18;21.80;99.90
3380;DHT22;1703;51.964;7.642;2022-09-09T11:34:54;21.70;99.90
3380;DHT22;1703;51.964;7.642;2022-09-09T11:37:39;21.60;99.90
3380;DHT22;1703;51.964;7.642;2022-09-09T11:40:19;21.60;99.90
3380;DHT22;1703;51.964;7.642;2022-09-09T11:42:49;21.60;99.90
3380;DHT22;1703;51.964;7.642;2022-09-09T11:45:28;21.60;99.90
3380;DHT22;1703;51.964;7.642;2022-09-09T11:47:57;21.80;99.90
3380;DHT22;1703;51.964;7.642;2022-09-09T11:50:34;21.80;99.90
3380;DHT22;1703;51.964;7.642;2022-09-09T11:53:19;22.00;99.90
3380;DHT22;1703;51.964;7.642;2022-09-09T11:56:08;22.10;99.90
3380;DHT22;1703;51.964;7.642;2022-09-09T11:58:41;22.10;99.90
3380;DHT22;1703;51.964;7.642;2022-09-09T12:04:16;22.20;99.90
3380;DHT22;1703;51.964;7.642;2022-09-09T12:06:45;22.30;99.90
3380;DHT22;1703;51.964;7.642;2022-09-09T12:09:22;22.30;99.90
3380;DHT22;1703;51.964;7.642;2022-09-09T12:11:52;22.30;99.90
3380;DHT22;1703;51.964;7.642;2022-09-09T12:14:35;22.40;99.90
3380;DHT22;1703;51.964;7.642;2022-09-09T12:19:45;22.20;99.90
3380;DHT22;1703;51.964;7.642;2022-09-09T12:22:18;22.10;99.90
3380;DHT22;1703;51.964;7.642;2022-09-09T12:24:51;22.10;99.90
3380;DHT22;1703;51.964;7.642;2022-09-09T12:27:25;22.10;99.90
3380;DHT22;1703;51.964;7.642;2022-09-09T12:30:00;22.20;99.90
3380;DHT22;1703;51.964;7.642;2022-09-09T12:32:28;22.30;99.90
3380;DHT22;1703;51.964;7.642;2022-09-09T12:34:59;22.40;99.90
3380;DHT22;1703;51.964;7.642;2022-09-09T12:37:32;22.40;99.90
3380;DHT22;1703;51.964;7.642;2022-09-09T12:40:03;22.60;99.90
3380;DHT22;1703;51.964;7.642;2022-09-09T12:42:30;22.80;99.90
3380;DHT22;1703;51.964;7.642;2022-09-09T12:45:00;23.00;99.90
3380;DHT22;1703;51.964;7.642;2022-09-09T12:47:38;22.90;99.90
3380;DHT22;1703;51.964;7.642;2022-09-09T12:50:16;22.80;99.90
3380;DHT22;1703;51.964;7.642;2022-09-09T12:52:44;22.80;99.90
3380;DHT22;1703;51.964;7.642;2022-09-09T12:55:17;22.90;99.90
3380;DHT22;1703;51.964;7.642;2022-09-09T12:57:45;22.70;99.90
3380;DHT22;1703;51.964;7.642;2022-09-09T13:00:15;22.80;99.90
3380;DHT22;1703;51.964;7.642;2022-09-09T13:02:47;22.70;99.90
3380;DHT22;1703;51.964;7.642;2022-09-09T13:05:19;22.90;99.90
3380;DHT22;1703;51.964;7.642;2022-09-09T13:07:47;23.00;99.90
3380;DHT22;1703;51.964;7.642;2022-09-09T13:10:19;23.10;99.90
3380;DHT22;1703;51.964;7.642;2022-09-09T13:12:47;23.20;99.90
3380;DHT22;1703;51.964;7.642;2022-09-09T13:15:20;23.10;99.90
3380;DHT22;1703;51.964;7.642;2022-09-09T13:17:53;23.10;99.90
3380;DHT22;1703;51.964;7.642;2022-09-09T13:20:24;23.10;99.90
3380;DHT22;1703;51.964;7.642;2022-09-09T13:22:55;22.80;99.90
3380;DHT22;1703;51.964;7.642;2022-09-09T13:25:25;22.60;99.90
3380;DHT22;1703;51.964;7.642;2022-09-09T13:28:00;22.60;99.90
3380;DHT22;1703;51.964;7.642;2022-09-09T13:30:29;22.50;99.90
3380;DHT22;1703;51.964;7.642;2022-09-09T13:35:48;20.90;99.90
3380;DHT22;1703;51.964;7.642;2022-09-09T13:38:16;20.10;99.90
3380;DHT22;1703;51.964;7.642;2022-09-09T13:40:53;19.80;99.90
3380;DHT22;1703;51.964;7.642;2022-09-09T13:43:24;19.50;99.90
3380;DHT22;1703;51.964;7.642;2022-09-09T13:45:56;19.40;99.90
3380;DHT22;1703;51.964;7.642;2022-09-09T13:48:24;19.50;99.90
3380;DHT22;1703;51.964;7.642;2022-09-09T13:50:58;19.60;99.90
3380;DHT22;1703;51.964;7.642;2022-09-09T13:53:26;19.90;99.90
3380;DHT22;1703;51.964;7.642;2022-09-09T13:55:53;20.60;99.90
3380;DHT22;1703;51.964;7.642;2022-09-09T13:58:20;21.30;99.90
3380;DHT22;1703;51.964;7.642;2022-09-09T14:00:48;21.50;99.90
3380;DHT22;1703;51.964;7.642;2022-09-09T14:03:15;21.50;99.90
3380;DHT22;1703;51.964;7.642;2022-09-09T14:05:43;21.40;99.90
3380;DHT22;1703;51.964;7.642;2022-09-09T14:08:19;21.30;99.90
3380;DHT22;1703;51.964;7.642;2022-09-09T14:10:50;21.20;99.90
3380;DHT22;1703;51.964;7.642;2022-09-09T14:13:18;21.20;99.90
3380;DHT22;1703;51.964;7.642;2022-09-09T14:15:48;21.00;99.90
3380;DHT22;1703;51.964;7.642;2022-09-09T14:18:15;20.90;99.90
3380;DHT22;1703;51.964;7.642;2022-09-09T14:20:42;20.90;99.90
3380;DHT22;1703;51.964;7.642;2022-09-09T14:23:12;20.90;99.90
3380;DHT22;1703;51.964;7.642;2022-09-09T14:25:41;20.80;99.90
3380;DHT22;1703;51.964;7.642;2022-09-09T14:28:10;20.60;99.90
3380;DHT22;1703;51.964;7.642;2022-09-09T14:30:38;20.40;99.90
3380;DHT22;1703;51.964;7.642;2022-09-09T14:33:05;20.10;99.90
3380;DHT22;1703;51.964;7.642;2022-09-09T14:35:32;19.70;99.90
3380;DHT22;1703;51.964;7.642;2022-09-09T14:37:59;19.30;99.90
3380;DHT22;1703;51.964;7.642;2022-09-09T14:40:29;19.00;99.90
3380;DHT22;1703;51.964;7.642;2022-09-09T14:42:56;18.80;99.90
3380;DHT22;1703;51.964;7.642;2022-09-09T14:45:24;18.60;99.90
3380;DHT22;1703;51.964;7.642;2022-09-09T14:47:52;18.60;99.90
3380;DHT22;1703;51.964;7.642;2022-09-09T14:50:19;18.60;99.90
3380;DHT22;1703;51.964;7.642;2022-09-09T14:52:46;18.60;99.90
3380;DHT22;1703;51.964;7.642;2022-09-09T14:55:14;18.60;99.90
3380;DHT22;1703;51.964;7.642;2022-09-09T14:57:45;18.50;99.90
3380;DHT22;1703;51.964;7.642;2022-09-09T15:00:15;18.50;99.90
3380;DHT22;1703;51.964;7.642;2022-09-09T15:02:42;18.50;99.90
3380;DHT22;1703;51.964;7.642;2022-09-09T15:05:09;18.50;99.90
3380;DHT22;1703;51.964;7.642;2022-09-09T15:07:36;18.70;99.90
3380;DHT22;1703;51.964;7.642;2022-09-09T15:10:04;18.80;99.90
3380;DHT22;1703;51.964;7.642;2022-09-09T15:12:32;18.90;99.90
3380;DHT22;1703;51.964;7.642;2022-09-09T15:15:02;19.00;99.90
3380;DHT22;1703;51.964;7.642;2022-09-09T15:17:29;19.10;99.90
3380;DHT22;1703;51.964;7.642;2022-09-09T15:19:56;19.20;99.90
3380;DHT22;1703;51.964;7.642;2022-09-09T15:22:23;19.20;99.90
3380;DHT22;1703;51.964;7.642;2022-09-09T15:24:50;19.30;99.90
3380;DHT22;1703;51.964;7.642;2022-09-09T15:27:17;19.40;99.90
3380;DHT22;1703;51.964;7.642;2022-09-09T15:29:44;19.40;99.90
3380;DHT22;1703;51.964;7.642;2022-09-09T15:32:13;19.40;99.90
3380;DHT22;1703;51.964;7.642;2022-09-09T15:34:40;19.50;99.90
3380;DHT22;1703;51.964;7.642;2022-09-09T15:37:10;19.50;99.90
3380;DHT22;1703;51.964;7.642;2022-09-09T15:39:39;19.50;99.90
3380;DHT22;1703;51.964;7.642;2022-09-09T15:42:08;19.30;99.90
3380;DHT22;1703;51.964;7.642;2022-09-09T15:44:39;19.40;99.90
3380;DHT22;1703;51.964;7.642;2022-09-09T15:47:07;19.50;99.90
3380;DHT22;1703;51.964;7.642;2022-09-09T15:49:38;19.50;99.90
3380;DHT22;1703;51.964;7.642;2022-09-09T15:52:05;19.50;99.90
3380;DHT22;1703;51.964;7.642;2022-09-09T15:54:33;19.50;99.90
3380;DHT22;1703;51.964;7.642;2022-09-09T15:57:02;19.40;99.90
3380;DHT22;1703;51.964;7.642;2022-09-09T15:59:31;19.40;99.90
3380;DHT22;1703;51.964;7.642;2022-09-09T16:01:59;19.40;99.90
3380;DHT22;1703;51.964;7.642;2022-09-09T16:04:27;19.50;99.90
3380;DHT22;1703;51.964;7.642;2022-09-09T16:06:57;19.50;99.90
3380;DHT22;1703;51.964;7.642;2022-09-09T16:09:25;19.50;99.90
3380;DHT22;1703;51.964;7.642;2022-09-09T16:11:52;19.50;99.90
3380;DHT22;1703;51.964;7.642;2022-09-09T16:14:19;19.50;99.90
3380;DHT22;1703;51.964;7.642;2022-09-09T16:16:47;19.50;99.90
3380;DHT22;1703;51.964;7.642;2022-09-09T16:19:14;19.50;99.90
3380;DHT22;1703;51.964;7.642;2022-09-09T16:21:43;19.40;99.90
3380;DHT22;1703;51.964;7.642;2022-09-09T16:24:13;19.40;99.90
3380;DHT22;1703;51.964;7.642;2022-09-09T16:26:41;19.40;99.90
3380;DHT22;1703;51.964;7.642;2022-09-09T16:29:11;19.40;99.90
3380;DHT22;1703;51.964;7.642;2022-09-09T16:31:38;19.30;99.90
3380;DHT22;1703;51.964;7.642;2022-09-09T16:34:05;19.30;99.90
3380;DHT22;1703;51.964;7.642;2022-09-09T16:36:34;19.20;99.90
3380;DHT22;1703;51.964;7.642;2022-09-09T16:39:03;19.10;99.90